Natures Way Challenger — WDF7294 — position and weather

sailwx.info

Track history (hours):
 
Tides and Currents Weather Stations Pressure Air Temp Water Temp Dewpoint Dewpoint Depression Visibility Wind Speed Wind Dir Waves Ship Positions

Natures Way Challenger

Owner: Natures Way Marine, LLC, Theodore, AL. More information available from US FCC via Universal Licensing System and Coast Guard Vessel Documentation Center.

Last reported at 2014-Dec-20 02:29 UTC. Time now 2014-Dec-20 17:20 UTC.
Position N 29°32' W 090°48'.

Length 14 m.

Type: Towing. MMSI: 367483050.

Date/timePositionNaut miles runAvg speedWind from/ knotsBaromVisibWave heightAir tempDewpointWater temp
2014-Dec-20 02:29N 29°32' W 090°48'6 2.0
2014-Dec-19 23:33N 29°33' W 090°55'4 3.8
2014-Dec-19 22:29N 29°36' W 090°58'3 3.4
2014-Dec-19 21:33N 29°37' W 091°01'4 3.6
2014-Dec-19 20:33N 29°38' W 091°05'3 2.5
2014-Dec-19 19:33N 29°40' W 091°08'3 2.9
2014-Dec-19 18:33N 29°41' W 091°11'2 2.3
2014-Dec-19 17:33N 29°40' W 091°13'3 3.0
2014-Dec-19 16:33N 29°39' W 091°17'3 3.3
2014-Dec-19 15:33N 29°38' W 091°20'6 3.7
2014-Dec-19 14:03N 29°40' W 091°26'2 3.6
2014-Dec-19 13:30N 29°41' W 091°28'2 0.3
2014-Dec-19 07:31N 29°42' W 091°30'3 2.7
2014-Dec-19 06:33N 29°43' W 091°33'  
2014-Dec-16 17:33N 29°33' W 094°55'5 4.7
2014-Dec-16 16:33N 29°37' W 094°58'5 5.1
2014-Dec-16 15:32N 29°42' W 095°00'5 4.6
2014-Dec-16 14:33N 29°45' W 095°04'1 1.4
2014-Dec-16 13:33N 29°46' W 095°05'0 0.3
2014-Dec-16 12:33N 29°46' W 095°05'0 0.4
2014-Dec-16 11:33N 29°46' W 095°05'4 3.5
2014-Dec-16 10:33N 29°44' W 095°08'2 1.9
2014-Dec-16 09:33N 29°45' W 095°10'1 0.7
2014-Dec-16 08:33N 29°45' W 095°11'0 0.1
2014-Dec-16 07:33N 29°45' W 095°11'0 0.2
2014-Dec-16 06:33N 29°45' W 095°11'1 1.0
2014-Dec-16 05:33N 29°45' W 095°10'3 3.0
2014-Dec-16 04:33N 29°45' W 095°06'2 2.0
2014-Dec-16 03:31N 29°47' W 095°06'1 1.2
2014-Dec-16 02:32N 29°47' W 095°05'0 0.0
2014-Dec-16 01:33N 29°47' W 095°05'0 0.0
2014-Dec-16 00:31N 29°47' W 095°05'1 1.1
2014-Dec-15 23:33N 29°46' W 095°05'1 1.2
2014-Dec-15 22:34N 29°47' W 095°06'0 0.0
2014-Dec-15 21:33N 29°47' W 095°06'0 0.0
2014-Dec-15 20:33N 29°47' W 095°06'0 0.0
2014-Dec-15 19:33N 29°47' W 095°06'0 0.0
2014-Dec-15 18:33N 29°47' W 095°06'0 0.0
2014-Dec-15 17:33N 29°47' W 095°06'0 0.0
2014-Dec-15 16:33N 29°47' W 095°06'0 0.0
2014-Dec-15 15:29N 29°47' W 095°06'0 0.0
2014-Dec-15 14:33N 29°47' W 095°06'0 0.0
2014-Dec-15 13:28N 29°47' W 095°06'1 0.1
2014-Dec-15 03:33N 29°46' W 095°05'4 4.4
2014-Dec-15 02:33N 29°43' W 095°01'5 4.5
2014-Dec-15 01:33N 29°39' W 094°58'5 4.8
2014-Dec-15 00:33N 29°35' W 094°56'5 5.0
2014-Dec-14 23:31N 29°31' W 094°53'  
2014-Dec-12 08:15N 29°45' W 091°35'3 3.4
2014-Dec-12 07:16N 29°43' W 091°32'3 3.8
2014-Dec-12 06:25N 29°41' W 091°29'4 3.4
2014-Dec-12 05:16N 29°39' W 091°25'2 3.4
2014-Dec-12 04:33N 29°39' W 091°22'2 1.9
2014-Dec-12 03:33N 29°38' W 091°20'3 2.8
2014-Dec-12 02:33N 29°39' W 091°17'4 3.6
2014-Dec-12 01:33N 29°41' W 091°13'2 2.4
2014-Dec-12 00:33N 29°41' W 091°10'1 1.2
2014-Dec-11 23:33N 29°41' W 091°09'3 2.9
2014-Dec-11 22:33N 29°39' W 091°07'2 2.3
2014-Dec-11 21:33N 29°38' W 091°05'6 3.0
2014-Dec-11 19:32N 29°36' W 090°58'55 2.1
2014-Dec-10 17:25N 29°56' W 089°60'3 2.4
2014-Dec-10 16:16N 29°58' W 090°02'  
Track history (hours):
 
Tides and Currents Weather Stations Pressure Air Temp Water Temp Dewpoint Dewpoint Depression Visibility Wind Speed Wind Dir Waves Ship Positions

Natures Way Challenger

Owner: Natures Way Marine, LLC, Theodore, AL. More information available from US FCC via Universal Licensing System and Coast Guard Vessel Documentation Center.

Last reported at 2014-Dec-20 02:29 UTC. Time now 2014-Dec-20 17:20 UTC.
Position N 29°32' W 090°48'.

Length 14 m.

Type: Towing. MMSI: 367483050.

Date/timePositionNaut miles runAvg speedWind from/ knotsBaromVisibWave heightAir tempDewpointWater temp
2014-Dec-20 02:29N 29°32' W 090°48'6 2.0
2014-Dec-19 23:33N 29°33' W 090°55'4 3.8
2014-Dec-19 22:29N 29°36' W 090°58'3 3.4
2014-Dec-19 21:33N 29°37' W 091°01'4 3.6
2014-Dec-19 20:33N 29°38' W 091°05'3 2.5
2014-Dec-19 19:33N 29°40' W 091°08'3 2.9
2014-Dec-19 18:33N 29°41' W 091°11'2 2.3
2014-Dec-19 17:33N 29°40' W 091°13'3 3.0
2014-Dec-19 16:33N 29°39' W 091°17'3 3.3
2014-Dec-19 15:33N 29°38' W 091°20'6 3.7
2014-Dec-19 14:03N 29°40' W 091°26'2 3.6
2014-Dec-19 13:30N 29°41' W 091°28'2 0.3
2014-Dec-19 07:31N 29°42' W 091°30'3 2.7
2014-Dec-19 06:33N 29°43' W 091°33'  
2014-Dec-16 17:33N 29°33' W 094°55'5 4.7
2014-Dec-16 16:33N 29°37' W 094°58'5 5.1
2014-Dec-16 15:32N 29°42' W 095°00'5 4.6
2014-Dec-16 14:33N 29°45' W 095°04'1 1.4
2014-Dec-16 13:33N 29°46' W 095°05'0 0.3
2014-Dec-16 12:33N 29°46' W 095°05'0 0.4
2014-Dec-16 11:33N 29°46' W 095°05'4 3.5
2014-Dec-16 10:33N 29°44' W 095°08'2 1.9
2014-Dec-16 09:33N 29°45' W 095°10'1 0.7
2014-Dec-16 08:33N 29°45' W 095°11'0 0.1
2014-Dec-16 07:33N 29°45' W 095°11'0 0.2
2014-Dec-16 06:33N 29°45' W 095°11'1 1.0
2014-Dec-16 05:33N 29°45' W 095°10'3 3.0
2014-Dec-16 04:33N 29°45' W 095°06'2 2.0
2014-Dec-16 03:31N 29°47' W 095°06'1 1.2
2014-Dec-16 02:32N 29°47' W 095°05'0 0.0
2014-Dec-16 01:33N 29°47' W 095°05'0 0.0
2014-Dec-16 00:31N 29°47' W 095°05'1 1.1
2014-Dec-15 23:33N 29°46' W 095°05'1 1.2
2014-Dec-15 22:34N 29°47' W 095°06'0 0.0
2014-Dec-15 21:33N 29°47' W 095°06'0 0.0
2014-Dec-15 20:33N 29°47' W 095°06'0 0.0
2014-Dec-15 19:33N 29°47' W 095°06'0 0.0
2014-Dec-15 18:33N 29°47' W 095°06'0 0.0
2014-Dec-15 17:33N 29°47' W 095°06'0 0.0
2014-Dec-15 16:33N 29°47' W 095°06'0 0.0
2014-Dec-15 15:29N 29°47' W 095°06'0 0.0
2014-Dec-15 14:33N 29°47' W 095°06'0 0.0
2014-Dec-15 13:28N 29°47' W 095°06'1 0.1
2014-Dec-15 03:33N 29°46' W 095°05'4 4.4
2014-Dec-15 02:33N 29°43' W 095°01'5 4.5
2014-Dec-15 01:33N 29°39' W 094°58'5 4.8
2014-Dec-15 00:33N 29°35' W 094°56'5 5.0
2014-Dec-14 23:31N 29°31' W 094°53'  
2014-Dec-12 08:15N 29°45' W 091°35'3 3.4
2014-Dec-12 07:16N 29°43' W 091°32'3 3.8
2014-Dec-12 06:25N 29°41' W 091°29'4 3.4
2014-Dec-12 05:16N 29°39' W 091°25'2 3.4
2014-Dec-12 04:33N 29°39' W 091°22'2 1.9
2014-Dec-12 03:33N 29°38' W 091°20'3 2.8
2014-Dec-12 02:33N 29°39' W 091°17'4 3.6
2014-Dec-12 01:33N 29°41' W 091°13'2 2.4
2014-Dec-12 00:33N 29°41' W 091°10'1 1.2
2014-Dec-11 23:33N 29°41' W 091°09'3 2.9
2014-Dec-11 22:33N 29°39' W 091°07'2 2.3
2014-Dec-11 21:33N 29°38' W 091°05'6 3.0
2014-Dec-11 19:32N 29°36' W 090°58'55 2.1
2014-Dec-10 17:25N 29°56' W 089°60'3 2.4
2014-Dec-10 16:16N 29°58' W 090°02'  

Dump ship's entire track history